sensor_id;sensor_type;location;lat;lon;timestamp;P1;durP1;ratioP1;P2;durP2;ratioP2
49812;SDS011;35706;52.100;5.056;2023-11-21T00:00:50;22.60;;;9.70;;
49812;SDS011;35706;52.100;5.056;2023-11-21T00:01:52;21.38;;;8.75;;
49812;SDS011;35706;52.100;5.056;2023-11-21T00:02:54;20.73;;;8.07;;
49812;SDS011;35706;52.100;5.056;2023-11-21T00:03:54;22.90;;;9.07;;
49812;SDS011;35706;52.100;5.056;2023-11-21T00:04:55;16.08;;;7.60;;
49812;SDS011;35706;52.100;5.056;2023-11-21T00:05:55;23.42;;;8.98;;
49812;SDS011;35706;52.100;5.056;2023-11-21T00:06:56;17.98;;;7.57;;
49812;SDS011;35706;52.100;5.056;2023-11-21T00:07:56;22.25;;;7.85;;
49812;SDS011;35706;52.100;5.056;2023-11-21T00:08:56;16.80;;;7.28;;
49812;SDS011;35706;52.100;5.056;2023-11-21T00:09:57;18.33;;;8.18;;
49812;SDS011;35706;52.100;5.056;2023-11-21T00:10:57;14.57;;;7.45;;
49812;SDS011;35706;52.100;5.056;2023-11-21T00:11:59;27.05;;;8.50;;
49812;SDS011;35706;52.100;5.056;2023-11-21T00:12:59;19.70;;;8.00;;
49812;SDS011;35706;52.100;5.056;2023-11-21T00:14:02;18.25;;;7.68;;
49812;SDS011;35706;52.100;5.056;2023-11-21T00:15:03;20.83;;;7.68;;
49812;SDS011;35706;52.100;5.056;2023-11-21T00:16:10;14.65;;;6.55;;
49812;SDS011;35706;52.100;5.056;2023-11-21T00:17:12;16.75;;;7.40;;
49812;SDS011;35706;52.100;5.056;2023-11-21T00:18:12;15.48;;;6.78;;
49812;SDS011;35706;52.100;5.056;2023-11-21T00:19:14;21.58;;;7.43;;
49812;SDS011;35706;52.100;5.056;2023-11-21T00:20:14;20.25;;;7.90;;
49812;SDS011;35706;52.100;5.056;2023-11-21T00:21:14;15.48;;;7.07;;
49812;SDS011;35706;52.100;5.056;2023-11-21T00:22:14;17.40;;;7.20;;
49812;SDS011;35706;52.100;5.056;2023-11-21T00:23:17;13.43;;;5.75;;
49812;SDS011;35706;52.100;5.056;2023-11-21T00:24:18;17.50;;;6.22;;
49812;SDS011;35706;52.100;5.056;2023-11-21T00:25:18;16.42;;;6.35;;
49812;SDS011;35706;52.100;5.056;2023-11-21T00:26:19;15.18;;;6.80;;
49812;SDS011;35706;52.100;5.056;2023-11-21T00:27:21;15.88;;;6.47;;
49812;SDS011;35706;52.100;5.056;2023-11-21T00:28:21;14.57;;;6.70;;
49812;SDS011;35706;52.100;5.056;2023-11-21T00:29:22;19.55;;;7.28;;
49812;SDS011;35706;52.100;5.056;2023-11-21T00:30:22;14.55;;;7.03;;
49812;SDS011;35706;52.100;5.056;2023-11-21T00:31:25;18.80;;;6.53;;
49812;SDS011;35706;52.100;5.056;2023-11-21T00:32:26;12.88;;;6.55;;
49812;SDS011;35706;52.100;5.056;2023-11-21T00:33:26;15.88;;;6.28;;
49812;SDS011;35706;52.100;5.056;2023-11-21T00:34:28;13.88;;;6.25;;
49812;SDS011;35706;52.100;5.056;2023-11-21T00:35:29;12.02;;;6.32;;
49812;SDS011;35706;52.100;5.056;2023-11-21T00:36:31;13.75;;;5.70;;
49812;SDS011;35706;52.100;5.056;2023-11-21T00:37:32;14.65;;;5.97;;
49812;SDS011;35706;52.100;5.056;2023-11-21T00:38:32;14.98;;;5.47;;
49812;SDS011;35706;52.100;5.056;2023-11-21T00:39:33;15.00;;;6.43;;
49812;SDS011;35706;52.100;5.056;2023-11-21T00:40:35;15.10;;;5.60;;
49812;SDS011;35706;52.100;5.056;2023-11-21T00:41:36;15.43;;;5.97;;
49812;SDS011;35706;52.100;5.056;2023-11-21T00:42:37;13.68;;;5.90;;
49812;SDS011;35706;52.100;5.056;2023-11-21T00:43:37;16.38;;;5.95;;
49812;SDS011;35706;52.100;5.056;2023-11-21T00:44:38;11.27;;;5.68;;
49812;SDS011;35706;52.100;5.056;2023-11-21T00:45:39;14.43;;;6.38;;
49812;SDS011;35706;52.100;5.056;2023-11-21T00:46:40;12.05;;;5.35;;
49812;SDS011;35706;52.100;5.056;2023-11-21T00:47:40;15.45;;;5.30;;
49812;SDS011;35706;52.100;5.056;2023-11-21T00:48:40;13.65;;;5.60;;
49812;SDS011;35706;52.100;5.056;2023-11-21T00:49:41;11.27;;;5.65;;
49812;SDS011;35706;52.100;5.056;2023-11-21T00:50:44;14.82;;;6.13;;
49812;SDS011;35706;52.100;5.056;2023-11-21T00:51:44;14.75;;;6.18;;
49812;SDS011;35706;52.100;5.056;2023-11-21T00:52:44;14.48;;;4.85;;
49812;SDS011;35706;52.100;5.056;2023-11-21T00:53:45;15.82;;;5.53;;
49812;SDS011;35706;52.100;5.056;2023-11-21T00:54:47;19.33;;;5.90;;
49812;SDS011;35706;52.100;5.056;2023-11-21T00:55:48;12.88;;;5.72;;
49812;SDS011;35706;52.100;5.056;2023-11-21T00:56:48;12.38;;;5.50;;
49812;SDS011;35706;52.100;5.056;2023-11-21T00:57:48;15.00;;;5.38;;
49812;SDS011;35706;52.100;5.056;2023-11-21T00:58:49;13.30;;;5.40;;
49812;SDS011;35706;52.100;5.056;2023-11-21T00:59:52;11.20;;;5.00;;
49812;SDS011;35706;52.100;5.056;2023-11-21T01:00:52;13.20;;;4.88;;
49812;SDS011;35706;52.100;5.056;2023-11-21T01:01:53;11.82;;;5.13;;
49812;SDS011;35706;52.100;5.056;2023-11-21T01:02:54;8.35;;;4.10;;
49812;SDS011;35706;52.100;5.056;2023-11-21T01:03:54;11.30;;;4.47;;
49812;SDS011;35706;52.100;5.056;2023-11-21T01:04:55;10.98;;;4.57;;
49812;SDS011;35706;52.100;5.056;2023-11-21T01:05:55;10.52;;;4.53;;
49812;SDS011;35706;52.100;5.056;2023-11-21T01:06:56;14.00;;;4.70;;
49812;SDS011;35706;52.100;5.056;2023-11-21T01:07:56;7.78;;;3.95;;
49812;SDS011;35706;52.100;5.056;2023-11-21T01:08:56;7.38;;;3.95;;
49812;SDS011;35706;52.100;5.056;2023-11-21T01:09:56;9.85;;;4.47;;
49812;SDS011;35706;52.100;5.056;2023-11-21T01:10:57;10.60;;;3.85;;
49812;SDS011;35706;52.100;5.056;2023-11-21T01:11:57;9.52;;;3.78;;
49812;SDS011;35706;52.100;5.056;2023-11-21T01:12:59;9.27;;;4.18;;
49812;SDS011;35706;52.100;5.056;2023-11-21T01:14:00;9.88;;;3.67;;
49812;SDS011;35706;52.100;5.056;2023-11-21T01:15:00;6.65;;;3.75;;
49812;SDS011;35706;52.100;5.056;2023-11-21T01:16:01;7.68;;;3.63;;
49812;SDS011;35706;52.100;5.056;2023-11-21T01:17:01;8.93;;;3.35;;
49812;SDS011;35706;52.100;5.056;2023-11-21T01:18:02;10.73;;;4.05;;
49812;SDS011;35706;52.100;5.056;2023-11-21T01:19:03;8.70;;;3.72;;
49812;SDS011;35706;52.100;5.056;2023-11-21T01:20:04;10.38;;;4.10;;
49812;SDS011;35706;52.100;5.056;2023-11-21T01:21:11;7.68;;;3.33;;
49812;SDS011;35706;52.100;5.056;2023-11-21T01:22:12;6.82;;;3.72;;
49812;SDS011;35706;52.100;5.056;2023-11-21T01:23:15;10.18;;;3.65;;
49812;SDS011;35706;52.100;5.056;2023-11-21T01:24:16;9.82;;;4.60;;
49812;SDS011;35706;52.100;5.056;2023-11-21T01:25:16;5.25;;;3.72;;
49812;SDS011;35706;52.100;5.056;2023-11-21T01:26:17;7.78;;;3.38;;
49812;SDS011;35706;52.100;5.056;2023-11-21T01:27:17;3.95;;;2.83;;
49812;SDS011;35706;52.100;5.056;2023-11-21T01:28:18;7.97;;;3.72;;
49812;SDS011;35706;52.100;5.056;2023-11-21T01:29:19;8.65;;;2.80;;
49812;SDS011;35706;52.100;5.056;2023-11-21T01:30:20;7.00;;;3.33;;
49812;SDS011;35706;52.100;5.056;2023-11-21T01:31:20;7.63;;;3.20;;
49812;SDS011;35706;52.100;5.056;2023-11-21T01:32:20;6.63;;;3.33;;
49812;SDS011;35706;52.100;5.056;2023-11-21T01:33:21;6.70;;;2.97;;
49812;SDS011;35706;52.100;5.056;2023-11-21T01:34:21;5.18;;;3.47;;
49812;SDS011;35706;52.100;5.056;2023-11-21T01:35:21;7.70;;;3.60;;
49812;SDS011;35706;52.100;5.056;2023-11-21T01:36:22;9.02;;;3.58;;
49812;SDS011;35706;52.100;5.056;2023-11-21T01:37:22;6.53;;;3.33;;
49812;SDS011;35706;52.100;5.056;2023-11-21T01:38:22;8.23;;;3.28;;
49812;SDS011;35706;52.100;5.056;2023-11-21T01:39:23;4.97;;;3.45;;
49812;SDS011;35706;52.100;5.056;2023-11-21T01:40:23;5.60;;;3.70;;
49812;SDS011;35706;52.100;5.056;2023-11-21T01:41:25;10.13;;;3.25;;
49812;SDS011;35706;52.100;5.056;2023-11-21T01:42:27;4.90;;;3.10;;
49812;SDS011;35706;52.100;5.056;2023-11-21T01:43:29;5.00;;;3.05;;
49812;SDS011;35706;52.100;5.056;2023-11-21T01:44:31;5.45;;;3.53;;
49812;SDS011;35706;52.100;5.056;2023-11-21T01:45:31;7.88;;;3.25;;
49812;SDS011;35706;52.100;5.056;2023-11-21T01:46:33;7.68;;;2.97;;
49812;SDS011;35706;52.100;5.056;2023-11-21T01:47:34;5.05;;;2.97;;
49812;SDS011;35706;52.100;5.056;2023-11-21T01:48:36;6.05;;;3.28;;
49812;SDS011;35706;52.100;5.056;2023-11-21T01:49:38;4.75;;;3.55;;
49812;SDS011;35706;52.100;5.056;2023-11-21T01:50:38;5.40;;;3.28;;
49812;SDS011;35706;52.100;5.056;2023-11-21T01:51:40;3.95;;;2.60;;
49812;SDS011;35706;52.100;5.056;2023-11-21T01:52:41;8.40;;;3.20;;
49812;SDS011;35706;52.100;5.056;2023-11-21T01:53:44;11.02;;;2.88;;
49812;SDS011;35706;52.100;5.056;2023-11-21T01:54:46;8.77;;;4.03;;
49812;SDS011;35706;52.100;5.056;2023-11-21T01:55:47;8.63;;;3.28;;
49812;SDS011;35706;52.100;5.056;2023-11-21T01:56:49;8.00;;;3.53;;
49812;SDS011;35706;52.100;5.056;2023-11-21T01:57:50;8.70;;;3.50;;
49812;SDS011;35706;52.100;5.056;2023-11-21T01:58:51;9.23;;;3.30;;
49812;SDS011;35706;52.100;5.056;2023-11-21T01:59:51;7.80;;;4.38;;
49812;SDS011;35706;52.100;5.056;2023-11-21T02:00:54;8.50;;;3.97;;
49812;SDS011;35706;52.100;5.056;2023-11-21T02:01:55;6.68;;;3.55;;
49812;SDS011;35706;52.100;5.056;2023-11-21T02:02:56;7.93;;;3.58;;
49812;SDS011;35706;52.100;5.056;2023-11-21T02:03:57;6.30;;;3.47;;
49812;SDS011;35706;52.100;5.056;2023-11-21T02:04:57;6.78;;;3.45;;
49812;SDS011;35706;52.100;5.056;2023-11-21T02:05:57;9.38;;;4.22;;
49812;SDS011;35706;52.100;5.056;2023-11-21T02:06:58;7.20;;;4.00;;
49812;SDS011;35706;52.100;5.056;2023-11-21T02:07:59;9.32;;;3.83;;
49812;SDS011;35706;52.100;5.056;2023-11-21T02:09:00;6.47;;;3.38;;
49812;SDS011;35706;52.100;5.056;2023-11-21T02:10:01;6.50;;;3.95;;
49812;SDS011;35706;52.100;5.056;2023-11-21T02:11:01;10.65;;;3.72;;
49812;SDS011;35706;52.100;5.056;2023-11-21T02:12:02;5.25;;;3.55;;
49812;SDS011;35706;52.100;5.056;2023-11-21T02:13:04;8.65;;;3.90;;
49812;SDS011;35706;52.100;5.056;2023-11-21T02:14:04;8.13;;;3.60;;
49812;SDS011;35706;52.100;5.056;2023-11-21T02:15:09;8.30;;;3.58;;
49812;SDS011;35706;52.100;5.056;2023-11-21T02:16:15;8.70;;;3.50;;
49812;SDS011;35706;52.100;5.056;2023-11-21T02:17:15;6.70;;;3.47;;
49812;SDS011;35706;52.100;5.056;2023-11-21T02:18:16;6.20;;;3.15;;
49812;SDS011;35706;52.100;5.056;2023-11-21T02:19:18;6.43;;;2.95;;
49812;SDS011;35706;52.100;5.056;2023-11-21T02:20:22;11.18;;;3.95;;
49812;SDS011;35706;52.100;5.056;2023-11-21T02:21:24;7.95;;;3.80;;
49812;SDS011;35706;52.100;5.056;2023-11-21T02:22:26;8.60;;;4.20;;
49812;SDS011;35706;52.100;5.056;2023-11-21T02:23:31;9.27;;;3.90;;
49812;SDS011;35706;52.100;5.056;2023-11-21T02:24:31;12.18;;;4.05;;
49812;SDS011;35706;52.100;5.056;2023-11-21T02:25:32;9.73;;;4.07;;
49812;SDS011;35706;52.100;5.056;2023-11-21T02:26:33;10.18;;;4.07;;
49812;SDS011;35706;52.100;5.056;2023-11-21T02:27:33;6.93;;;2.95;;
49812;SDS011;35706;52.100;5.056;2023-11-21T02:28:34;7.28;;;3.90;;
49812;SDS011;35706;52.100;5.056;2023-11-21T02:29:34;9.70;;;4.57;;
49812;SDS011;35706;52.100;5.056;2023-11-21T02:30:34;13.38;;;3.85;;
49812;SDS011;35706;52.100;5.056;2023-11-21T02:31:35;10.63;;;3.80;;
49812;SDS011;35706;52.100;5.056;2023-11-21T02:32:35;6.80;;;3.72;;
49812;SDS011;35706;52.100;5.056;2023-11-21T02:33:36;10.95;;;3.70;;
49812;SDS011;35706;52.100;5.056;2023-11-21T02:34:37;12.75;;;3.50;;
49812;SDS011;35706;52.100;5.056;2023-11-21T02:35:38;9.10;;;4.05;;
49812;SDS011;35706;52.100;5.056;2023-11-21T02:36:38;11.20;;;4.32;;
49812;SDS011;35706;52.100;5.056;2023-11-21T02:37:39;6.85;;;3.53;;
49812;SDS011;35706;52.100;5.056;2023-11-21T02:38:40;10.25;;;3.80;;
49812;SDS011;35706;52.100;5.056;2023-11-21T02:39:41;12.82;;;4.03;;
49812;SDS011;35706;52.100;5.056;2023-11-21T02:40:42;6.75;;;3.20;;
49812;SDS011;35706;52.100;5.056;2023-11-21T02:41:43;7.63;;;3.78;;
49812;SDS011;35706;52.100;5.056;2023-11-21T02:42:44;7.70;;;3.67;;
49812;SDS011;35706;52.100;5.056;2023-11-21T02:43:44;8.15;;;3.40;;
49812;SDS011;35706;52.100;5.056;2023-11-21T02:44:45;11.40;;;3.67;;
49812;SDS011;35706;52.100;5.056;2023-11-21T02:45:45;9.45;;;3.33;;
49812;SDS011;35706;52.100;5.056;2023-11-21T02:46:45;12.15;;;4.10;;
49812;SDS011;35706;52.100;5.056;2023-11-21T02:47:47;6.47;;;3.55;;
49812;SDS011;35706;52.100;5.056;2023-11-21T02:48:47;5.30;;;3.88;;
49812;SDS011;35706;52.100;5.056;2023-11-21T02:49:47;7.50;;;3.60;;
49812;SDS011;35706;52.100;5.056;2023-11-21T02:50:48;8.98;;;4.05;;
49812;SDS011;35706;52.100;5.056;2023-11-21T02:51:48;11.32;;;3.63;;
49812;SDS011;35706;52.100;5.056;2023-11-21T02:52:48;8.50;;;3.22;;
49812;SDS011;35706;52.100;5.056;2023-11-21T02:53:49;7.57;;;3.10;;
49812;SDS011;35706;52.100;5.056;2023-11-21T02:54:50;8.95;;;3.45;;
49812;SDS011;35706;52.100;5.056;2023-11-21T02:55:51;9.30;;;3.58;;
49812;SDS011;35706;52.100;5.056;2023-11-21T02:56:52;14.02;;;3.55;;
49812;SDS011;35706;52.100;5.056;2023-11-21T02:57:52;7.15;;;3.25;;
49812;SDS011;35706;52.100;5.056;2023-11-21T02:58:55;5.07;;;3.28;;
49812;SDS011;35706;52.100;5.056;2023-11-21T02:59:55;8.60;;;3.78;;
49812;SDS011;35706;52.100;5.056;2023-11-21T03:00:56;7.38;;;3.42;;
49812;SDS011;35706;52.100;5.056;2023-11-21T03:01:56;6.55;;;3.17;;
49812;SDS011;35706;52.100;5.056;2023-11-21T03:02:57;8.90;;;3.40;;
49812;SDS011;35706;52.100;5.056;2023-11-21T03:03:57;10.57;;;3.22;;
49812;SDS011;35706;52.100;5.056;2023-11-21T03:04:57;6.38;;;3.00;;
49812;SDS011;35706;52.100;5.056;2023-11-21T03:05:58;7.80;;;3.03;;
49812;SDS011;35706;52.100;5.056;2023-11-21T03:06:58;6.75;;;3.25;;
49812;SDS011;35706;52.100;5.056;2023-11-21T03:07:58;6.80;;;3.03;;
49812;SDS011;35706;52.100;5.056;2023-11-21T03:08:58;7.80;;;3.47;;
49812;SDS011;35706;52.100;5.056;2023-11-21T03:09:59;15.05;;;3.13;;
49812;SDS011;35706;52.100;5.056;2023-11-21T03:10:59;8.10;;;3.25;;
49812;SDS011;35706;52.100;5.056;2023-11-21T03:12:00;5.55;;;2.70;;
49812;SDS011;35706;52.100;5.056;2023-11-21T03:13:00;9.63;;;3.33;;
49812;SDS011;35706;52.100;5.056;2023-11-21T03:14:01;7.35;;;3.17;;
49812;SDS011;35706;52.100;5.056;2023-11-21T03:15:01;7.07;;;3.42;;
49812;SDS011;35706;52.100;5.056;2023-11-21T03:16:02;10.25;;;3.33;;
49812;SDS011;35706;52.100;5.056;2023-11-21T03:17:02;9.40;;;3.25;;
49812;SDS011;35706;52.100;5.056;2023-11-21T03:18:04;13.95;;;3.28;;
49812;SDS011;35706;52.100;5.056;2023-11-21T03:19:05;7.78;;;3.13;;
49812;SDS011;35706;52.100;5.056;2023-11-21T03:20:05;8.10;;;3.50;;
49812;SDS011;35706;52.100;5.056;2023-11-21T03:21:06;7.72;;;3.08;;
49812;SDS011;35706;52.100;5.056;2023-11-21T03:22:10;8.55;;;4.18;;
49812;SDS011;35706;52.100;5.056;2023-11-21T03:23:11;8.32;;;3.15;;
49812;SDS011;35706;52.100;5.056;2023-11-21T03:24:12;7.70;;;3.50;;
49812;SDS011;35706;52.100;5.056;2023-11-21T03:25:12;9.13;;;3.25;;
49812;SDS011;35706;52.100;5.056;2023-11-21T03:26:13;10.13;;;3.85;;
49812;SDS011;35706;52.100;5.056;2023-11-21T03:27:13;11.20;;;3.45;;
49812;SDS011;35706;52.100;5.056;2023-11-21T03:28:14;8.65;;;4.03;;
49812;SDS011;35706;52.100;5.056;2023-11-21T03:29:14;13.32;;;3.83;;
49812;SDS011;35706;52.100;5.056;2023-11-21T03:30:14;8.68;;;3.70;;
49812;SDS011;35706;52.100;5.056;2023-11-21T03:31:15;10.57;;;4.25;;
49812;SDS011;35706;52.100;5.056;2023-11-21T03:32:17;7.15;;;4.50;;
49812;SDS011;35706;52.100;5.056;2023-11-21T03:33:18;9.73;;;3.13;;
49812;SDS011;35706;52.100;5.056;2023-11-21T03:34:25;11.50;;;3.60;;
49812;SDS011;35706;52.100;5.056;2023-11-21T03:35:26;11.15;;;3.20;;
49812;SDS011;35706;52.100;5.056;2023-11-21T03:36:27;8.68;;;3.65;;
49812;SDS011;35706;52.100;5.056;2023-11-21T03:37:28;8.98;;;3.53;;
49812;SDS011;35706;52.100;5.056;2023-11-21T03:38:28;9.50;;;3.88;;
49812;SDS011;35706;52.100;5.056;2023-11-21T03:39:28;8.98;;;3.47;;
49812;SDS011;35706;52.100;5.056;2023-11-21T03:40:29;8.07;;;4.25;;
49812;SDS011;35706;52.100;5.056;2023-11-21T03:41:31;9.27;;;3.92;;
49812;SDS011;35706;52.100;5.056;2023-11-21T03:42:31;13.18;;;3.90;;
49812;SDS011;35706;52.100;5.056;2023-11-21T03:43:31;10.50;;;3.67;;
49812;SDS011;35706;52.100;5.056;2023-11-21T03:44:32;9.60;;;3.83;;
49812;SDS011;35706;52.100;5.056;2023-11-21T03:45:32;9.80;;;3.70;;
49812;SDS011;35706;52.100;5.056;2023-11-21T03:46:33;13.93;;;4.22;;
49812;SDS011;35706;52.100;5.056;2023-11-21T03:47:33;9.55;;;4.13;;
49812;SDS011;35706;52.100;5.056;2023-11-21T03:48:34;9.02;;;3.97;;
49812;SDS011;35706;52.100;5.056;2023-11-21T03:49:34;9.93;;;4.10;;
49812;SDS011;35706;52.100;5.056;2023-11-21T03:50:34;12.02;;;3.53;;
49812;SDS011;35706;52.100;5.056;2023-11-21T03:51:35;12.30;;;4.18;;
49812;SDS011;35706;52.100;5.056;2023-11-21T03:52:35;5.63;;;3.63;;
49812;SDS011;35706;52.100;5.056;2023-11-21T03:53:36;11.38;;;4.03;;
49812;SDS011;35706;52.100;5.056;2023-11-21T03:54:36;9.10;;;4.30;;
49812;SDS011;35706;52.100;5.056;2023-11-21T03:55:36;12.52;;;4.85;;
49812;SDS011;35706;52.100;5.056;2023-11-21T03:56:37;10.52;;;3.95;;
49812;SDS011;35706;52.100;5.056;2023-11-21T03:57:37;8.27;;;3.55;;
49812;SDS011;35706;52.100;5.056;2023-11-21T03:58:37;8.60;;;3.30;;
49812;SDS011;35706;52.100;5.056;2023-11-21T03:59:41;8.60;;;4.25;;
49812;SDS011;35706;52.100;5.056;2023-11-21T04:00:42;11.02;;;4.93;;
49812;SDS011;35706;52.100;5.056;2023-11-21T04:01:42;8.25;;;3.75;;
49812;SDS011;35706;52.100;5.056;2023-11-21T04:02:43;13.38;;;4.28;;
49812;SDS011;35706;52.100;5.056;2023-11-21T04:03:43;10.93;;;4.15;;
49812;SDS011;35706;52.100;5.056;2023-11-21T04:04:43;15.30;;;4.13;;
49812;SDS011;35706;52.100;5.056;2023-11-21T04:05:44;11.82;;;3.72;;
49812;SDS011;35706;52.100;5.056;2023-11-21T04:06:45;10.15;;;4.60;;
49812;SDS011;35706;52.100;5.056;2023-11-21T04:07:46;14.25;;;4.85;;
49812;SDS011;35706;52.100;5.056;2023-11-21T04:08:46;14.20;;;3.78;;
49812;SDS011;35706;52.100;5.056;2023-11-21T04:09:47;15.65;;;4.47;;
49812;SDS011;35706;52.100;5.056;2023-11-21T04:10:47;8.52;;;4.22;;
49812;SDS011;35706;52.100;5.056;2023-11-21T04:11:48;11.25;;;4.85;;
49812;SDS011;35706;52.100;5.056;2023-11-21T04:12:48;20.50;;;5.22;;
49812;SDS011;35706;52.100;5.056;2023-11-21T04:13:49;16.17;;;4.93;;
49812;SDS011;35706;52.100;5.056;2023-11-21T04:14:49;14.30;;;5.68;;
49812;SDS011;35706;52.100;5.056;2023-11-21T04:15:50;12.57;;;4.60;;
49812;SDS011;35706;52.100;5.056;2023-11-21T04:16:51;20.42;;;5.22;;
49812;SDS011;35706;52.100;5.056;2023-11-21T04:17:53;16.08;;;5.68;;
49812;SDS011;35706;52.100;5.056;2023-11-21T04:18:53;15.00;;;5.45;;
49812;SDS011;35706;52.100;5.056;2023-11-21T04:19:54;17.27;;;6.28;;
49812;SDS011;35706;52.100;5.056;2023-11-21T04:20:54;17.83;;;5.72;;
49812;SDS011;35706;52.100;5.056;2023-11-21T04:21:55;20.35;;;5.32;;
49812;SDS011;35706;52.100;5.056;2023-11-21T04:22:56;12.25;;;5.15;;
49812;SDS011;35706;52.100;5.056;2023-11-21T04:23:56;12.93;;;5.05;;
49812;SDS011;35706;52.100;5.056;2023-11-21T04:24:56;18.33;;;5.32;;
49812;SDS011;35706;52.100;5.056;2023-11-21T04:25:57;13.63;;;5.25;;
49812;SDS011;35706;52.100;5.056;2023-11-21T04:26:57;17.80;;;5.15;;
49812;SDS011;35706;52.100;5.056;2023-11-21T04:27:58;18.70;;;5.47;;
49812;SDS011;35706;52.100;5.056;2023-11-21T04:28:58;19.67;;;5.43;;
49812;SDS011;35706;52.100;5.056;2023-11-21T04:29:58;20.48;;;5.18;;
49812;SDS011;35706;52.100;5.056;2023-11-21T04:30:59;20.73;;;5.10;;
49812;SDS011;35706;52.100;5.056;2023-11-21T04:31:59;13.02;;;5.10;;
49812;SDS011;35706;52.100;5.056;2023-11-21T04:32:59;20.02;;;5.07;;
49812;SDS011;35706;52.100;5.056;2023-11-21T04:34:00;16.52;;;4.75;;
49812;SDS011;35706;52.100;5.056;2023-11-21T04:35:00;18.92;;;5.18;;
49812;SDS011;35706;52.100;5.056;2023-11-21T04:36:00;17.48;;;5.38;;
49812;SDS011;35706;52.100;5.056;2023-11-21T04:37:01;16.30;;;6.10;;
49812;SDS011;35706;52.100;5.056;2023-11-21T04:38:01;13.00;;;5.75;;
49812;SDS011;35706;52.100;5.056;2023-11-21T04:39:01;18.95;;;5.35;;
49812;SDS011;35706;52.100;5.056;2023-11-21T04:40:02;15.05;;;5.32;;
49812;SDS011;35706;52.100;5.056;2023-11-21T04:41:07;17.90;;;5.22;;
49812;SDS011;35706;52.100;5.056;2023-11-21T04:42:07;17.95;;;5.47;;
49812;SDS011;35706;52.100;5.056;2023-11-21T04:43:07;20.73;;;5.43;;
49812;SDS011;35706;52.100;5.056;2023-11-21T04:44:08;14.10;;;5.00;;
49812;SDS011;35706;52.100;5.056;2023-11-21T04:45:09;18.23;;;6.20;;
49812;SDS011;35706;52.100;5.056;2023-11-21T04:46:11;17.33;;;5.35;;
49812;SDS011;35706;52.100;5.056;2023-11-21T04:47:11;15.52;;;5.45;;
49812;SDS011;35706;52.100;5.056;2023-11-21T04:48:12;14.40;;;5.03;;
49812;SDS011;35706;52.100;5.056;2023-11-21T04:49:12;14.27;;;5.57;;
49812;SDS011;35706;52.100;5.056;2023-11-21T04:50:13;16.42;;;5.28;;
49812;SDS011;35706;52.100;5.056;2023-11-21T04:51:13;14.18;;;6.03;;
49812;SDS011;35706;52.100;5.056;2023-11-21T04:52:14;24.15;;;6.70;;
49812;SDS011;35706;52.100;5.056;2023-11-21T04:53:14;15.07;;;5.28;;
49812;SDS011;35706;52.100;5.056;2023-11-21T04:54:14;18.23;;;6.03;;
49812;SDS011;35706;52.100;5.056;2023-11-21T04:55:15;17.88;;;5.95;;
49812;SDS011;35706;52.100;5.056;2023-11-21T04:56:15;18.95;;;6.15;;
49812;SDS011;35706;52.100;5.056;2023-11-21T04:57:18;22.25;;;6.22;;
49812;SDS011;35706;52.100;5.056;2023-11-21T04:58:18;18.63;;;6.05;;
49812;SDS011;35706;52.100;5.056;2023-11-21T04:59:20;13.00;;;5.75;;
49812;SDS011;35706;52.100;5.056;2023-11-21T05:00:24;17.83;;;6.18;;
49812;SDS011;35706;52.100;5.056;2023-11-21T05:01:25;17.25;;;5.78;;
49812;SDS011;35706;52.100;5.056;2023-11-21T05:02:26;22.08;;;5.38;;
49812;SDS011;35706;52.100;5.056;2023-11-21T05:03:26;20.60;;;6.18;;
49812;SDS011;35706;52.100;5.056;2023-11-21T05:04:26;16.58;;;5.53;;
49812;SDS011;35706;52.100;5.056;2023-11-21T05:05:27;17.73;;;5.80;;
49812;SDS011;35706;52.100;5.056;2023-11-21T05:06:27;18.60;;;6.35;;
49812;SDS011;35706;52.100;5.056;2023-11-21T05:07:27;17.10;;;5.20;;
49812;SDS011;35706;52.100;5.056;2023-11-21T05:08:28;13.82;;;5.57;;
49812;SDS011;35706;52.100;5.056;2023-11-21T05:09:29;16.70;;;6.10;;
49812;SDS011;35706;52.100;5.056;2023-11-21T05:10:32;14.32;;;5.43;;
49812;SDS011;35706;52.100;5.056;2023-11-21T05:11:32;17.20;;;5.57;;
49812;SDS011;35706;52.100;5.056;2023-11-21T05:12:33;12.35;;;4.85;;
49812;SDS011;35706;52.100;5.056;2023-11-21T05:13:36;18.17;;;6.50;;
49812;SDS011;35706;52.100;5.056;2023-11-21T05:14:37;19.20;;;5.63;;
49812;SDS011;35706;52.100;5.056;2023-11-21T05:15:37;20.38;;;5.65;;
49812;SDS011;35706;52.100;5.056;2023-11-21T05:16:39;13.07;;;5.63;;
49812;SDS011;35706;52.100;5.056;2023-11-21T05:17:40;17.83;;;5.70;;
49812;SDS011;35706;52.100;5.056;2023-11-21T05:18:49;17.25;;;5.95;;
49812;SDS011;35706;52.100;5.056;2023-11-21T05:19:50;14.77;;;5.70;;
49812;SDS011;35706;52.100;5.056;2023-11-21T05:20:50;20.35;;;7.20;;
49812;SDS011;35706;52.100;5.056;2023-11-21T05:21:51;16.58;;;5.38;;
49812;SDS011;35706;52.100;5.056;2023-11-21T05:22:51;16.30;;;6.10;;
49812;SDS011;35706;52.100;5.056;2023-11-21T05:23:52;15.57;;;5.82;;
49812;SDS011;35706;52.100;5.056;2023-11-21T05:24:52;20.13;;;7.15;;
49812;SDS011;35706;52.100;5.056;2023-11-21T05:25:53;18.30;;;6.78;;
49812;SDS011;35706;52.100;5.056;2023-11-21T05:26:53;18.35;;;6.13;;
49812;SDS011;35706;52.100;5.056;2023-11-21T05:27:53;15.38;;;6.25;;
49812;SDS011;35706;52.100;5.056;2023-11-21T05:28:54;19.58;;;6.55;;
49812;SDS011;35706;52.100;5.056;2023-11-21T05:29:54;18.13;;;6.53;;
49812;SDS011;35706;52.100;5.056;2023-11-21T05:30:55;17.20;;;5.40;;
49812;SDS011;35706;52.100;5.056;2023-11-21T05:31:55;21.58;;;6.78;;
49812;SDS011;35706;52.100;5.056;2023-11-21T05:32:56;16.23;;;6.25;;
49812;SDS011;35706;52.100;5.056;2023-11-21T05:33:56;20.00;;;6.78;;
49812;SDS011;35706;52.100;5.056;2023-11-21T05:34:56;14.48;;;6.78;;
49812;SDS011;35706;52.100;5.056;2023-11-21T05:35:57;19.10;;;6.40;;
49812;SDS011;35706;52.100;5.056;2023-11-21T05:36:57;25.05;;;7.13;;
49812;SDS011;35706;52.100;5.056;2023-11-21T05:37:58;22.23;;;6.10;;
49812;SDS011;35706;52.100;5.056;2023-11-21T05:38:58;11.85;;;5.80;;
49812;SDS011;35706;52.100;5.056;2023-11-21T05:39:59;22.10;;;7.07;;
49812;SDS011;35706;52.100;5.056;2023-11-21T05:41:04;20.65;;;6.82;;
49812;SDS011;35706;52.100;5.056;2023-11-21T05:42:05;17.45;;;7.32;;
49812;SDS011;35706;52.100;5.056;2023-11-21T05:43:06;16.25;;;6.72;;
49812;SDS011;35706;52.100;5.056;2023-11-21T05:44:06;18.73;;;7.35;;
49812;SDS011;35706;52.100;5.056;2023-11-21T05:45:07;17.75;;;6.35;;
49812;SDS011;35706;52.100;5.056;2023-11-21T05:46:11;18.15;;;6.25;;
49812;SDS011;35706;52.100;5.056;2023-11-21T05:47:11;14.95;;;6.22;;
49812;SDS011;35706;52.100;5.056;2023-11-21T05:48:13;15.18;;;6.75;;
49812;SDS011;35706;52.100;5.056;2023-11-21T05:49:14;16.75;;;6.85;;
49812;SDS011;35706;52.100;5.056;2023-11-21T05:50:15;14.98;;;5.93;;
49812;SDS011;35706;52.100;5.056;2023-11-21T05:51:16;16.23;;;5.68;;
49812;SDS011;35706;52.100;5.056;2023-11-21T05:52:17;19.83;;;6.68;;
49812;SDS011;35706;52.100;5.056;2023-11-21T05:53:18;14.00;;;6.07;;
49812;SDS011;35706;52.100;5.056;2023-11-21T05:54:18;16.92;;;6.15;;
49812;SDS011;35706;52.100;5.056;2023-11-21T05:55:18;17.15;;;6.32;;
49812;SDS011;35706;52.100;5.056;2023-11-21T05:56:21;22.60;;;7.45;;
49812;SDS011;35706;52.100;5.056;2023-11-21T05:57:21;16.60;;;6.38;;
49812;SDS011;35706;52.100;5.056;2023-11-21T05:58:22;20.98;;;7.50;;
49812;SDS011;35706;52.100;5.056;2023-11-21T05:59:23;20.50;;;6.95;;
49812;SDS011;35706;52.100;5.056;2023-11-21T06:00:23;20.27;;;7.45;;
49812;SDS011;35706;52.100;5.056;2023-11-21T06:01:25;18.95;;;7.03;;
49812;SDS011;35706;52.100;5.056;2023-11-21T06:02:28;22.98;;;8.05;;
49812;SDS011;35706;52.100;5.056;2023-11-21T06:03:28;20.95;;;7.65;;